Terminal Aerodrome Forecast
Issued by NWS

Home | Current Version | Previous Version | Text Only | Print | Product List | Glossary On
Versions: 1 2 3 4 5 6 7 8 9 10 11 12 13 14 15 16 17 18 19 20 21 22 23 24 25 26 27
000
FTUS46 KMTR 260543 CCA
TAFSFO
TAF COR
KSFO 260543Z 2606/2712 27008KT P6SM FEW010 SCT016
      TEMPO 2606/2608 SCT010 BKN016
     FM261200 26008KT P6SM SCT010 SCT020 BKN050
     FM261600 27012KT P6SM VCSH FEW015 BKN030
     FM262000 26016G20KT P6SM SCT020 BKN030
     FM270100 27015KT P6SM SCT015 SCT030
     FM270700 27009KT P6SM SCT020=

USA.gov is the U.S. government's official web portal to all federal, state and local government web resources and services.